2004 NANMADOL (2004333N06154)


On this page: IBTrACS data - Map and Plots - Positions - Intensities - Original source data

Summary

Start Nov 28
End Dec 4
Basin WP
LMI 130 kt
Sources jtwc_wp
tokyo
cma
hko
In WMO? Yes
Previous storm 2004 MISSING (NI)
Previous in basin 2004 MERBOK (WP)
Concurrent storms 2005 BENTO (SI)
2004 OTTO (NA)
2004 MISSING (NI)
2004 NANMADOL (WP)
2005 MISSING (SI)
Next in basin 2004 TALAS (WP)
Next storm 2005 MISSING (SI)

top of page IBTrACS Data: File Access

top of page HURSAT Data: File Access

Image of storm

top of page Plots:

Map of storm track will not appear if FTP is down
Time series of cyclone Maximum Sustained Wind will not appear if FTP is down
Time series of cyclone Minimum Central Pressure will not appear if FTP is down

top of page Track Data:Position

jtwc_wp tokyo cma hko
Date Lat Lon Lat Lon Lat Lon Lat Lon
2004-11-28 00:00:00 5.4 153.1 5.7 153.7 5.7 153.7
2004-11-28 06:00:00 5.6 151.8 5.6 152.3 5.6 152.3
2004-11-28 12:00:00 5.8 150.5 6.0 150.3 6.0 150.4
2004-11-28 18:00:00 6.0 149.2 6.2 149.1 6.1 149.0
2004-11-29 00:00:00 6.3 147.8 6.4 147.7 6.4 147.7 6.3 147.7
2004-11-29 06:00:00 6.9 146.0 6.8 146.0 6.6 146.1 6.7 146.1
2004-11-29 12:00:00 7.1 144.1 7.1 144.0 7.1 144.2 7.1 144.3
2004-11-29 18:00:00 7.7 142.7 7.7 143.1 7.6 143.1 7.6 143.0
2004-11-30 00:00:00 8.5 141.0 8.6 141.0 8.6 141.0 8.6 141.0
2004-11-30 06:00:00 9.3 139.1 9.5 139.0 9.4 139.0 9.4 139.0
2004-11-30 12:00:00 10.0 137.1 10.0 137.1 10.0 137.1 10.0 137.1
2004-11-30 18:00:00 10.8 135.0 10.7 135.2 10.7 135.2 10.7 135.2
2004-12-01 00:00:00 11.6 132.8 11.7 132.8 11.6 132.8 11.7 132.8
2004-12-01 06:00:00 12.3 130.7 12.5 130.5 12.4 130.5 12.4 130.5
2004-12-01 12:00:00 13.0 128.6 13.1 128.7 13.1 128.7 13.0 128.7
2004-12-01 18:00:00 13.7 126.7 13.7 126.8 13.7 126.8 13.7 126.8
2004-12-02 00:00:00 14.3 125.0 14.3 125.0 14.3 125.0 14.3 125.0
2004-12-02 06:00:00 14.9 123.4 15.0 123.4 14.9 123.4 14.9 123.4
2004-12-02 12:00:00 15.8 121.9 16.0 122.1 15.9 122.1 15.9 122.0
2004-12-02 18:00:00 17.0 120.0 17.4 120.1 17.3 120.1 17.3 120.0
2004-12-03 00:00:00 17.9 119.0 18.1 119.2 18.1 119.1 18.1 119.0
2004-12-03 06:00:00 19.3 118.5 19.2 118.7 19.2 118.7 19.2 118.6
2004-12-03 12:00:00 20.2 118.3 20.2 118.2 20.2 118.3 20.1 118.3
2004-12-03 18:00:00 21.3 119.1 22.0 119.3 21.6 119.1 21.7 119.1
2004-12-04 00:00:00 22.4 120.2 22.6 120.7 22.5 120.6 22.5 120.6
jtwc_wp tokyo cma hko
2004-12-04 06:00:00 23.2 122.6 23.2 122.6

top of pageTrack Data:Intensity

jtwc_wp tokyo cma hko
Date Wind Pres Wind Pres Wind Pres Wind Pres
2004-11-28 00:00:00 20. 1004. 1006. 19. 1006.
2004-11-28 06:00:00 25. 1002. 1002. 23. 1002.
2004-11-28 12:00:00 25. 1002. 1000. 29. 1000.
2004-11-28 18:00:00 30. 1000. 1000. 29. 1000.
2004-11-29 00:00:00 35. 997. 35. 992. 35. 992. 30. 1000.
2004-11-29 06:00:00 55. 984. 35. 992. 35. 992. 35. 996.
2004-11-29 12:00:00 65. 976. 40. 990. 45. 990. 40. 992.
2004-11-29 18:00:00 75. 967. 45. 985. 45. 990. 45. 988.
2004-11-30 00:00:00 75. 967. 50. 980. 45. 990. 45. 988.
2004-11-30 06:00:00 80. 963. 60. 975. 54. 980. 55. 980.
2004-11-30 12:00:00 85. 958. 75. 960. 68. 970. 65. 970.
2004-11-30 18:00:00 90. 954. 75. 955. 78. 965. 75. 960.
2004-12-01 00:00:00 105. 938. 85. 940. 78. 960. 85. 950.
2004-12-01 06:00:00 115. 927. 90. 935. 87. 950. 90. 945.
2004-12-01 12:00:00 125. 916. 90. 935. 87. 950. 90. 945.
2004-12-01 18:00:00 130. 910. 90. 935. 87. 950. 90. 945.
2004-12-02 00:00:00 130. 910. 80. 945. 87. 950. 90. 945.
2004-12-02 06:00:00 120. 922. 80. 945. 87. 950. 85. 950.
2004-12-02 12:00:00 115. 927. 75. 955. 78. 960. 80. 955.
2004-12-02 18:00:00 100. 944. 70. 965. 68. 970. 75. 960.
2004-12-03 00:00:00 95. 949. 60. 970. 64. 975. 70. 965.
2004-12-03 06:00:00 75. 967. 55. 980. 58. 980. 60. 975.
2004-12-03 12:00:00 65. 976. 50. 985. 54. 980. 55. 980.
2004-12-03 18:00:00 55. 984. 50. 985. 49. 985. 50. 984.
2004-12-04 00:00:00 45. 991. 45. 992. 49. 990. 50. 984.
jtwc_wp tokyo cma hko
2004-12-04 06:00:00 1000. 29. 1000.

top of page Links to source data

Source Source file Format
jtwc_wp bwp302004.txt ATCF
tokyo bst_all.txt:Line=54372:NANMADOL:427 JMA text table
cma CH2004BST.txt:Storm=32:Nanmadol CMA text table
hko tc-besttrack-data-current.txt:Line=31174:NANMADOL HKO Text table